Terminal Aerodrome Forecast
Issued by NWS

Home | Current Version | Previous Version | Graphics & Text | Print | Product List | Glossary On
Versions: 1 2 3 4 5 6 7 8 9 10 11 12 13 14 15
282
FTUS43 KMPX 170523
TAFAXN
TAF
KAXN 170523Z 1706/1806 VRB03KT 4SM BR SCT100 BKN250
      TEMPO 1710/1714 1SM BR BKN004
     FM171600 28005KT P6SM SCT150
     FM172200 21007KT P6SM SCT250=

USA.gov is the U.S. government's official web portal to all federal, state and local government web resources and services.